createdAt,value
2018-06-15T00:01:04.282Z,1012.02
2018-06-15T00:02:13.427Z,1012.02
2018-06-15T00:03:22.599Z,1012.06
2018-06-15T00:04:32.527Z,1012.03
2018-06-15T00:05:41.687Z,1012.05
2018-06-15T00:06:51.098Z,1012.08
2018-06-15T00:08:00.253Z,1012.05
2018-06-15T00:09:09.192Z,1012.01
2018-06-15T00:10:18.599Z,1012.07
2018-06-15T00:11:28.033Z,1012.03
2018-06-15T00:12:37.454Z,1012.04
2018-06-15T00:13:47.165Z,1012.01
2018-06-15T00:14:56.580Z,1012.01
2018-06-15T00:16:05.763Z,1011.99
2018-06-15T00:17:15.192Z,1012.02
2018-06-15T00:18:24.336Z,1011.99
2018-06-15T00:19:33.757Z,1012.01
2018-06-15T00:20:43.444Z,1012
2018-06-15T00:21:52.856Z,1012.01
2018-06-15T00:23:01.762Z,1012
2018-06-15T00:24:11.185Z,1011.99
2018-06-15T00:25:20.614Z,1012
2018-06-15T00:26:30.022Z,1012
2018-06-15T00:27:39.444Z,1011.99
2018-06-15T00:28:48.615Z,1011.99
2018-06-15T00:29:57.768Z,1011.97
2018-06-15T00:31:07.447Z,1011.98
2018-06-15T00:32:16.637Z,1011.96
2018-06-15T00:33:26.301Z,1011.97
2018-06-15T00:34:35.461Z,1011.97
2018-06-15T00:35:44.614Z,1011.95
2018-06-15T00:36:53.771Z,1011.99
2018-06-15T00:38:03.214Z,1011.98
2018-06-15T00:39:12.642Z,1011.98
2018-06-15T00:40:22.312Z,1011.99
2018-06-15T00:41:31.500Z,1012.01
2018-06-15T00:42:40.654Z,1011.99
2018-06-15T00:43:49.815Z,1011.97
2018-06-15T00:44:59.251Z,1011.97
2018-06-15T00:46:08.418Z,1011.97
2018-06-15T00:47:17.841Z,1011.99
2018-06-15T00:48:27.512Z,1011.95
2018-06-15T00:49:36.921Z,1011.96
2018-06-15T00:50:46.070Z,1011.96
2018-06-15T00:51:55.217Z,1011.95
2018-06-15T00:53:04.643Z,1011.9
2018-06-15T00:54:13.539Z,1011.92
2018-06-15T00:55:22.437Z,1011.93
2018-06-15T00:56:31.849Z,1011.9
2018-06-15T00:57:41.048Z,1011.9
2018-06-15T00:58:50.479Z,1011.87
2018-06-15T00:59:59.900Z,1011.85
2018-06-15T01:01:09.336Z,1011.86
2018-06-15T01:02:18.766Z,1011.85
2018-06-15T01:03:27.914Z,1011.8
2018-06-15T01:04:37.085Z,1011.79
2018-06-15T01:05:46.512Z,1011.76
2018-06-15T01:06:55.664Z,1011.79
2018-06-15T01:08:05.337Z,1011.77
2018-06-15T01:09:14.751Z,1011.77
2018-06-15T01:10:24.425Z,1011.77
2018-06-15T01:11:33.325Z,1011.74
2018-06-15T01:12:42.240Z,1011.75
2018-06-15T01:13:51.668Z,1011.75
2018-06-15T01:15:01.128Z,1011.77
2018-06-15T01:16:11.082Z,1011.75
2018-06-15T01:17:20.763Z,1011.73
2018-06-15T01:18:30.591Z,1011.73
2018-06-15T01:19:40.003Z,1011.71
2018-06-15T01:20:49.434Z,1011.69
2018-06-15T01:21:58.852Z,1011.68
2018-06-15T01:23:08.518Z,1011.71
2018-06-15T01:24:17.983Z,1011.7
2018-06-15T01:25:27.676Z,1011.71
2018-06-15T01:26:36.584Z,1011.68
2018-06-15T01:27:46.003Z,1011.68
2018-06-15T01:28:55.924Z,1011.7
2018-06-15T01:30:04.817Z,1011.63
2018-06-15T01:31:14.493Z,1011.71
2018-06-15T01:32:23.913Z,1011.67
2018-06-15T01:33:33.090Z,1011.66
2018-06-15T01:34:42.075Z,1011.63
2018-06-15T01:35:51.750Z,1011.62
2018-06-15T01:37:00.906Z,1011.61
2018-06-15T01:38:10.573Z,1011.67
2018-06-15T01:39:20.534Z,1011.6
2018-06-15T01:40:29.963Z,1011.64
2018-06-15T01:41:39.662Z,1011.64
2018-06-15T01:42:49.327Z,1011.6
2018-06-15T01:43:58.985Z,1011.62
2018-06-15T01:45:08.141Z,1011.61
2018-06-15T01:46:17.048Z,1011.6
2018-06-15T01:47:26.719Z,1011.63
2018-06-15T01:48:36.198Z,1011.6
2018-06-15T01:49:45.873Z,1011.63
2018-06-15T01:50:55.550Z,1011.61
2018-06-15T01:52:04.706Z,1011.62
2018-06-15T01:53:13.907Z,1011.6
2018-06-15T01:54:22.816Z,1011.58
2018-06-15T01:55:32.293Z,1011.59
2018-06-15T01:56:41.703Z,1011.58
2018-06-15T01:57:51.114Z,1011.59
2018-06-15T01:59:00.795Z,1011.57
2018-06-15T02:00:10.214Z,1011.57
2018-06-15T02:01:19.478Z,1011.58
2018-06-15T02:02:30.014Z,1011.54
2018-06-15T02:03:39.952Z,1011.59
2018-06-15T02:04:49.628Z,1011.59
2018-06-15T02:05:59.294Z,1011.61
2018-06-15T02:07:08.703Z,1011.61
2018-06-15T02:08:18.146Z,1011.59
2018-06-15T02:09:27.559Z,1011.55
2018-06-15T02:10:37.221Z,1011.56
2018-06-15T02:11:46.111Z,1011.52
2018-06-15T02:12:55.542Z,1011.51
2018-06-15T02:14:05.253Z,1011.51
2018-06-15T02:15:14.776Z,1011.55
2018-06-15T02:16:23.671Z,1011.56
2018-06-15T02:17:33.111Z,1011.58
2018-06-15T02:18:42.006Z,1011.57
2018-06-15T02:19:51.417Z,1011.61
2018-06-15T02:21:00.833Z,1011.61
2018-06-15T02:22:10.523Z,1011.6
2018-06-15T02:23:19.926Z,1011.58
2018-06-15T02:24:29.383Z,1011.58
2018-06-15T02:25:39.219Z,1011.58
2018-06-15T02:26:48.375Z,1011.56
2018-06-15T02:27:57.794Z,1011.55
2018-06-15T02:29:06.944Z,1011.56
2018-06-15T02:30:16.880Z,1011.59
2018-06-15T02:31:26.821Z,1011.55
2018-06-15T02:32:35.734Z,1011.59
2018-06-15T02:33:46.103Z,1011.56
2018-06-15T02:34:55.024Z,1011.57
2018-06-15T02:36:04.960Z,1011.57
2018-06-15T02:37:14.135Z,1011.53
2018-06-15T02:38:23.818Z,1011.56
2018-06-15T02:39:33.759Z,1011.58
2018-06-15T02:40:43.426Z,1011.58
2018-06-15T02:41:53.104Z,1011.59
2018-06-15T02:43:02.768Z,1011.6
2018-06-15T02:44:11.934Z,1011.59
2018-06-15T02:45:21.940Z,1011.59
2018-06-15T02:46:31.956Z,1011.54
2018-06-15T02:47:41.388Z,1011.57
2018-06-15T02:48:50.562Z,1011.59
2018-06-15T02:49:59.720Z,1011.53
2018-06-15T02:51:09.136Z,1011.54
2018-06-15T02:52:18.571Z,1011.58
2018-06-15T02:53:28.250Z,1011.58
2018-06-15T02:54:37.686Z,1011.54
2018-06-15T02:55:46.851Z,1011.61
2018-06-15T02:56:55.763Z,1011.61
2018-06-15T02:58:05.190Z,1011.64
2018-06-15T02:59:14.871Z,1011.66
2018-06-15T03:00:24.810Z,1011.69
2018-06-15T03:01:33.985Z,1011.65
2018-06-15T03:02:43.191Z,1011.68
2018-06-15T03:03:52.850Z,1011.68
2018-06-15T03:05:01.998Z,1011.68
2018-06-15T03:06:10.979Z,1011.66
2018-06-15T03:07:20.396Z,1011.64
2018-06-15T03:08:29.859Z,1011.64
2018-06-15T03:09:39.808Z,1011.69
2018-06-15T03:10:49.513Z,1011.7
2018-06-15T03:11:59.227Z,1011.66
2018-06-15T03:13:09.176Z,1011.68
2018-06-15T03:14:19.136Z,1011.69
2018-06-15T03:15:29.069Z,1011.67
2018-06-15T03:16:39.024Z,1011.67
2018-06-15T03:17:48.971Z,1011.69
2018-06-15T03:18:58.132Z,1011.68
2018-06-15T03:20:08.044Z,1011.69
2018-06-15T03:21:17.732Z,1011.71
2018-06-15T03:22:26.872Z,1011.72
2018-06-15T03:23:36.271Z,1011.73
2018-06-15T03:24:45.437Z,1011.7
2018-06-15T03:25:54.612Z,1011.68
2018-06-15T03:27:04.031Z,1011.69
2018-06-15T03:28:13.450Z,1011.74
2018-06-15T03:29:22.859Z,1011.72
2018-06-15T03:30:32.534Z,1011.69
2018-06-15T03:31:41.997Z,1011.72
2018-06-15T03:32:51.948Z,1011.7
2018-06-15T03:34:01.618Z,1011.69
2018-06-15T03:35:11.023Z,1011.68
2018-06-15T03:36:20.427Z,1011.66
2018-06-15T03:37:29.586Z,1011.65
2018-06-15T03:38:38.759Z,1011.68
2018-06-15T03:39:48.182Z,1011.69
2018-06-15T03:40:57.371Z,1011.69
2018-06-15T03:42:06.790Z,1011.67
2018-06-15T03:43:15.444Z,1011.65
2018-06-15T03:44:24.881Z,1011.69
2018-06-15T03:45:34.314Z,1011.66
2018-06-15T03:46:44.254Z,1011.67
2018-06-15T03:47:53.956Z,1011.69
2018-06-15T03:49:03.953Z,1011.75
2018-06-15T03:50:13.395Z,1011.79
2018-06-15T03:51:22.838Z,1011.82
2018-06-15T03:52:32.628Z,1011.88
2018-06-15T03:53:42.312Z,1011.89
2018-06-15T03:54:51.739Z,1011.96
2018-06-15T03:56:01.166Z,1011.95
2018-06-15T03:57:10.334Z,1011.95
2018-06-15T03:58:19.816Z,1011.95
2018-06-15T03:59:29.247Z,1011.93
2018-06-15T04:00:38.399Z,1011.97
2018-06-15T04:01:47.866Z,1011.99
2018-06-15T04:02:56.505Z,1011.98
2018-06-15T04:04:05.923Z,1012.01
2018-06-15T04:05:14.828Z,1012.05
2018-06-15T04:06:24.005Z,1012.01
2018-06-15T04:07:33.995Z,1012.03
2018-06-15T04:08:44.385Z,1012.06
2018-06-15T04:09:53.810Z,1012.04
2018-06-15T04:11:03.493Z,1012.09
2018-06-15T04:12:12.912Z,1012.07
2018-06-15T04:13:22.856Z,1012.08
2018-06-15T04:14:32.281Z,1012.04
2018-06-15T04:15:41.187Z,1012.04
2018-06-15T04:16:50.625Z,1012.04
2018-06-15T04:18:00.058Z,1012.01
2018-06-15T04:19:09.473Z,1012.04
2018-06-15T04:20:18.622Z,1012.05
2018-06-15T04:21:28.293Z,1012.08
2018-06-15T04:22:37.704Z,1012.07
2018-06-15T04:23:47.814Z,1012.08
2018-06-15T04:24:57.477Z,1012.05
2018-06-15T04:26:06.883Z,1012.08
2018-06-15T04:27:16.312Z,1012.06
2018-06-15T04:28:25.987Z,1012.07
2018-06-15T04:29:35.680Z,1012.07
2018-06-15T04:30:45.347Z,1012.05
2018-06-15T04:31:55.071Z,1012.03
2018-06-15T04:33:04.484Z,1012
2018-06-15T04:34:13.905Z,1011.99
2018-06-15T04:35:23.310Z,1012.05
2018-06-15T04:36:32.726Z,1012.03
2018-06-15T04:37:41.632Z,1012.02
2018-06-15T04:38:51.050Z,1012.02
2018-06-15T04:40:00.213Z,1012.01
2018-06-15T04:41:09.384Z,1012.01
2018-06-15T04:42:19.054Z,1012.02
2018-06-15T04:43:28.504Z,1012.01
2018-06-15T04:44:37.679Z,1011.98
2018-06-15T04:45:47.357Z,1012.01
2018-06-15T04:46:56.512Z,1012.02
2018-06-15T04:48:05.924Z,1011.96
2018-06-15T04:49:15.356Z,1011.99
2018-06-15T04:50:24.252Z,1011.99
2018-06-15T04:51:33.931Z,1011.98
2018-06-15T04:52:43.364Z,1011.97
2018-06-15T04:53:52.535Z,1011.97
2018-06-15T04:55:01.684Z,1011.99
2018-06-15T04:56:11.365Z,1011.98
2018-06-15T04:57:20.939Z,1012.01
2018-06-15T04:58:30.640Z,1012.03
2018-06-15T04:59:39.823Z,1012.03
2018-06-15T05:00:49.493Z,1012.06
2018-06-15T05:01:59.470Z,1012.08
2018-06-15T05:03:08.947Z,1012.1
2018-06-15T05:04:18.559Z,1012.11
2018-06-15T05:05:27.474Z,1012.1
2018-06-15T05:06:37.194Z,1012.17
2018-06-15T05:07:47.207Z,1012.11
2018-06-15T05:08:56.609Z,1012.11
2018-06-15T05:10:06.317Z,1012.11
2018-06-15T05:11:15.994Z,1012.15
2018-06-15T05:12:25.666Z,1012.11
2018-06-15T05:13:35.098Z,1012.08
2018-06-15T05:14:44.483Z,1012.08
2018-06-15T05:15:53.639Z,1012.12
2018-06-15T05:17:03.339Z,1012.12
2018-06-15T05:18:12.832Z,1012.12
2018-06-15T05:19:21.717Z,1012.12
2018-06-15T05:20:31.138Z,1012.11
2018-06-15T05:21:40.821Z,1012.11
2018-06-15T05:22:50.761Z,1012.09
2018-06-15T05:23:59.913Z,1012.1
2018-06-15T05:25:09.642Z,1012.08
2018-06-15T05:26:19.313Z,1012.09
2018-06-15T05:27:28.530Z,1012.12
2018-06-15T05:28:37.469Z,1012.15
2018-06-15T05:29:47.556Z,1012.17
2018-06-15T05:30:57.259Z,1012.16
2018-06-15T05:32:06.927Z,1012.2
2018-06-15T05:33:16.143Z,1012.21
2018-06-15T05:34:25.558Z,1012.22
2018-06-15T05:35:35.248Z,1012.21
2018-06-15T05:36:44.429Z,1012.21
2018-06-15T05:37:53.589Z,1012.25
2018-06-15T05:39:03.020Z,1012.25
2018-06-15T05:40:12.432Z,1012.25
2018-06-15T05:41:22.098Z,1012.23
2018-06-15T05:42:31.295Z,1012.28
2018-06-15T05:43:41.164Z,1012.28
2018-06-15T05:44:50.330Z,1012.25
2018-06-15T05:45:59.756Z,1012.27
2018-06-15T05:47:09.435Z,1012.29
2018-06-15T05:48:18.855Z,1012.26
2018-06-15T05:49:28.041Z,1012.29
2018-06-15T05:50:37.221Z,1012.28
2018-06-15T05:51:46.915Z,1012.3
2018-06-15T05:52:56.325Z,1012.31
2018-06-15T05:54:05.785Z,1012.34
2018-06-15T05:55:14.945Z,1012.32
2018-06-15T05:56:24.352Z,1012.32
2018-06-15T05:57:34.026Z,1012.27
2018-06-15T05:58:43.719Z,1012.31
2018-06-15T05:59:52.930Z,1012.33
2018-06-15T06:01:02.068Z,1012.32
2018-06-15T06:02:11.766Z,1012.33
2018-06-15T06:03:21.177Z,1012.31
2018-06-15T06:04:30.878Z,1012.31
2018-06-15T06:05:40.069Z,1012.32
2018-06-15T06:06:51.581Z,1012.34
2018-06-15T06:08:01.514Z,1012.35
2018-06-15T06:09:10.962Z,1012.36
2018-06-15T06:10:20.128Z,1012.36
2018-06-15T06:11:30.068Z,1012.42
2018-06-15T06:12:39.508Z,1012.44
2018-06-15T06:13:48.680Z,1012.41
2018-06-15T06:14:57.879Z,1012.46
2018-06-15T06:16:07.588Z,1012.4
2018-06-15T06:17:17.280Z,1012.42
2018-06-15T06:18:26.687Z,1012.48
2018-06-15T06:19:36.608Z,1012.49
2018-06-15T06:20:46.468Z,1012.47
2018-06-15T06:21:56.176Z,1012.51
2018-06-15T06:23:05.606Z,1012.51
2018-06-15T06:24:14.559Z,1012.51
2018-06-15T06:25:23.505Z,1012.51
2018-06-15T06:26:33.235Z,1012.51
2018-06-15T06:27:43.226Z,1012.52
2018-06-15T06:28:52.930Z,1012.52
2018-06-15T06:30:01.905Z,1012.51
2018-06-15T06:31:11.354Z,1012.54
2018-06-15T06:32:20.501Z,1012.54
2018-06-15T06:33:29.987Z,1012.55
2018-06-15T06:34:39.422Z,1012.52
2018-06-15T06:35:48.578Z,1012.54
2018-06-15T06:36:58.272Z,1012.53
2018-06-15T06:38:07.968Z,1012.58
2018-06-15T06:39:17.643Z,1012.58
2018-06-15T06:40:27.317Z,1012.58
2018-06-15T06:41:36.762Z,1012.59
2018-06-15T06:42:45.905Z,1012.61
2018-06-15T06:43:55.086Z,1012.59
2018-06-15T06:45:04.513Z,1012.63
2018-06-15T06:46:13.772Z,1012.6
2018-06-15T06:47:22.920Z,1012.64
2018-06-15T06:48:32.586Z,1012.58
2018-06-15T06:49:41.783Z,1012.58
2018-06-15T06:50:51.460Z,1012.57
2018-06-15T06:52:01.143Z,1012.58
2018-06-15T06:53:10.836Z,1012.59
2018-06-15T06:54:20.529Z,1012.61
2018-06-15T06:55:30.469Z,1012.63
2018-06-15T06:56:39.638Z,1012.63
2018-06-15T06:57:49.153Z,1012.66
2018-06-15T06:58:58.590Z,1012.63
2018-06-15T07:00:07.755Z,1012.64
2018-06-15T07:01:16.928Z,1012.65
2018-06-15T07:02:25.828Z,1012.62
2018-06-15T07:03:35.265Z,1012.63
2018-06-15T07:04:44.431Z,1012.64
2018-06-15T07:05:54.097Z,1012.65
2018-06-15T07:07:03.772Z,1012.63
2018-06-15T07:08:13.001Z,1012.63
2018-06-15T07:09:22.563Z,1012.67
2018-06-15T07:10:32.250Z,1012.66
2018-06-15T07:11:41.926Z,1012.66
2018-06-15T07:12:51.343Z,1012.67
2018-06-15T07:14:00.785Z,1012.63
2018-06-15T07:15:10.449Z,1012.66
2018-06-15T07:16:20.135Z,1012.66
2018-06-15T07:17:29.815Z,1012.67
2018-06-15T07:18:39.288Z,1012.68
2018-06-15T07:19:48.737Z,1012.65
2018-06-15T07:20:58.168Z,1012.68
2018-06-15T07:22:07.338Z,1012.65
2018-06-15T07:23:16.499Z,1012.63
2018-06-15T07:24:26.457Z,1012.64
2018-06-15T07:25:36.131Z,1012.63
2018-06-15T07:26:45.047Z,1012.66
2018-06-15T07:27:54.238Z,1012.63
2018-06-15T07:29:03.652Z,1012.61
2018-06-15T07:30:13.323Z,1012.61
2018-06-15T07:31:22.750Z,1012.66
2018-06-15T07:32:32.172Z,1012.67
2018-06-15T07:33:41.867Z,1012.63
2018-06-15T07:34:51.583Z,1012.68
2018-06-15T07:36:00.755Z,1012.66
2018-06-15T07:37:10.000Z,1012.7
2018-06-15T07:38:19.429Z,1012.7
2018-06-15T07:39:29.115Z,1012.71
2018-06-15T07:40:38.795Z,1012.72
2018-06-15T07:41:48.223Z,1012.68
2018-06-15T07:42:57.392Z,1012.68
2018-06-15T07:44:06.316Z,1012.68
2018-06-15T07:45:15.485Z,1012.68
2018-06-15T07:46:24.636Z,1012.68
2018-06-15T07:47:34.568Z,1012.64
2018-06-15T07:48:43.744Z,1012.65
2018-06-15T07:49:52.916Z,1012.66
2018-06-15T07:51:02.352Z,1012.62
2018-06-15T07:52:11.525Z,1012.63
2018-06-15T07:53:21.457Z,1012.67
2018-06-15T07:54:31.134Z,1012.67
2018-06-15T07:55:40.291Z,1012.63
2018-06-15T07:56:49.516Z,1012.64
2018-06-15T07:57:59.196Z,1012.64
2018-06-15T07:59:08.874Z,1012.65
2018-06-15T08:00:18.063Z,1012.63
2018-06-15T08:01:27.226Z,1012.63
2018-06-15T08:02:36.163Z,1012.67
2018-06-15T08:03:45.599Z,1012.67
2018-06-15T08:04:54.789Z,1012.68
2018-06-15T08:06:04.216Z,1012.66
2018-06-15T08:07:13.395Z,1012.69
2018-06-15T08:08:23.073Z,1012.65
2018-06-15T08:09:32.234Z,1012.67
2018-06-15T08:10:41.413Z,1012.62
2018-06-15T08:11:51.356Z,1012.67
2018-06-15T08:13:00.555Z,1012.64
2018-06-15T08:14:10.254Z,1012.63
2018-06-15T08:15:19.423Z,1012.63
2018-06-15T08:16:28.841Z,1012.63
2018-06-15T08:17:38.001Z,1012.65
2018-06-15T08:18:47.152Z,1012.64
2018-06-15T08:19:56.317Z,1012.6
2018-06-15T08:21:06.006Z,1012.61
2018-06-15T08:22:15.435Z,1012.62
2018-06-15T08:23:24.854Z,1012.64
2018-06-15T08:24:34.284Z,1012.59
2018-06-15T08:25:43.439Z,1012.58
2018-06-15T08:26:52.868Z,1012.57
2018-06-15T08:28:02.557Z,1012.57
2018-06-15T08:29:12.516Z,1012.58
2018-06-15T08:30:22.461Z,1012.57
2018-06-15T08:31:31.876Z,1012.58
2018-06-15T08:32:41.853Z,1012.54
2018-06-15T08:33:50.771Z,1012.59
2018-06-15T08:35:00.689Z,1012.59
2018-06-15T08:36:10.128Z,1012.6
2018-06-15T08:37:19.312Z,1012.57
2018-06-15T08:38:28.483Z,1012.53
2018-06-15T08:39:37.454Z,1012.52
2018-06-15T08:40:46.887Z,1012.51
2018-06-15T08:41:56.582Z,1012.52
2018-06-15T08:43:06.009Z,1012.51
2018-06-15T08:44:15.763Z,1012.5
2018-06-15T08:45:24.920Z,1012.5
2018-06-15T08:46:34.361Z,1012.51
2018-06-15T08:47:44.291Z,1012.5
2018-06-15T08:48:53.721Z,1012.54
2018-06-15T08:50:03.395Z,1012.56
2018-06-15T08:51:12.644Z,1012.56
2018-06-15T08:52:22.140Z,1012.56
2018-06-15T08:53:32.073Z,1012.54
2018-06-15T08:54:41.234Z,1012.57
2018-06-15T08:55:50.130Z,1012.55
2018-06-15T08:56:59.815Z,1012.55
2018-06-15T08:58:08.965Z,1012.55
2018-06-15T08:59:18.644Z,1012.54
2018-06-15T09:00:28.323Z,1012.52
2018-06-15T09:01:38.267Z,1012.54
2018-06-15T09:02:47.443Z,1012.56
2018-06-15T09:03:56.867Z,1012.56
2018-06-15T09:05:05.814Z,1012.54
2018-06-15T09:06:14.731Z,1012.56
2018-06-15T09:07:24.174Z,1012.56
2018-06-15T09:08:33.615Z,1012.57
2018-06-15T09:09:43.549Z,1012.58
2018-06-15T09:10:52.977Z,1012.57
2018-06-15T09:12:02.163Z,1012.55
2018-06-15T09:13:11.335Z,1012.56
2018-06-15T09:14:20.774Z,1012.54
2018-06-15T09:15:30.227Z,1012.52
2018-06-15T09:16:39.641Z,1012.55
2018-06-15T09:17:49.360Z,1012.54
2018-06-15T09:18:58.511Z,1012.51
2018-06-15T09:20:08.032Z,1012.55
2018-06-15T09:21:17.461Z,1012.54
2018-06-15T09:22:26.403Z,1012.56
2018-06-15T09:23:36.097Z,1012.54
2018-06-15T09:24:44.998Z,1012.57
2018-06-15T09:25:54.434Z,1012.56
2018-06-15T09:27:03.599Z,1012.51
2018-06-15T09:28:12.794Z,1012.55
2018-06-15T09:29:22.236Z,1012.52
2018-06-15T09:30:31.922Z,1012.56
2018-06-15T09:31:41.408Z,1012.54
2018-06-15T09:32:50.329Z,1012.51
2018-06-15T09:33:59.533Z,1012.54
2018-06-15T09:35:08.449Z,1012.53
2018-06-15T09:36:18.200Z,1012.52
2018-06-15T09:37:27.118Z,1012.5
2018-06-15T09:38:37.075Z,1012.53
2018-06-15T09:39:46.515Z,1012.54
2018-06-15T09:40:55.417Z,1012.55
2018-06-15T09:42:04.586Z,1012.54
2018-06-15T09:43:14.994Z,1012.53
2018-06-15T09:44:24.687Z,1012.53
2018-06-15T09:45:34.372Z,1012.55
2018-06-15T09:46:44.049Z,1012.54
2018-06-15T09:47:53.741Z,1012.54
2018-06-15T09:49:03.166Z,1012.54
2018-06-15T09:50:12.592Z,1012.57
2018-06-15T09:51:21.510Z,1012.56
2018-06-15T09:52:30.707Z,1012.55
2018-06-15T09:53:40.138Z,1012.59
2018-06-15T09:54:49.591Z,1012.58
2018-06-15T09:55:59.287Z,1012.59
2018-06-15T09:57:08.471Z,1012.56
2018-06-15T09:58:17.979Z,1012.56
2018-06-15T09:59:26.908Z,1012.56
2018-06-15T10:00:36.178Z,1012.59
2018-06-15T10:01:45.900Z,1012.59
2018-06-15T10:02:55.121Z,1012.59
2018-06-15T10:04:04.703Z,1012.54
2018-06-15T10:05:14.357Z,1012.56
2018-06-15T10:06:23.331Z,1012.49
2018-06-15T10:07:32.221Z,1012.52
2018-06-15T10:08:41.663Z,1012.51
2018-06-15T10:09:51.099Z,1012.51
2018-06-15T10:11:00.278Z,1012.53
2018-06-15T10:12:09.187Z,1012.5
2018-06-15T10:13:18.846Z,1012.53
2018-06-15T10:14:28.018Z,1012.49
2018-06-15T10:15:37.448Z,1012.54
2018-06-15T10:16:46.611Z,1012.49
2018-06-15T10:17:56.617Z,1012.46
2018-06-15T10:19:05.534Z,1012.5
2018-06-15T10:20:14.705Z,1012.5
2018-06-15T10:21:24.387Z,1012.48
2018-06-15T10:22:33.041Z,1012.49
2018-06-15T10:23:42.732Z,1012.45
2018-06-15T10:24:51.898Z,1012.42
2018-06-15T10:26:01.059Z,1012.43
2018-06-15T10:27:10.758Z,1012.4
2018-06-15T10:28:20.650Z,1012.41
2018-06-15T10:29:30.062Z,1012.44
2018-06-15T10:30:39.497Z,1012.4
2018-06-15T10:31:48.924Z,1012.42
2018-06-15T10:32:58.916Z,1012.4
2018-06-15T10:34:08.524Z,1012.41
2018-06-15T10:35:17.722Z,1012.41
2018-06-15T10:36:27.150Z,1012.36
2018-06-15T10:37:36.551Z,1012.4
2018-06-15T10:38:45.733Z,1012.39
2018-06-15T10:39:55.171Z,1012.37
2018-06-15T10:41:04.093Z,1012.35
2018-06-15T10:42:13.769Z,1012.32
2018-06-15T10:43:23.457Z,1012.34
2018-06-15T10:44:33.453Z,1012.34
2018-06-15T10:45:43.150Z,1012.33
2018-06-15T10:46:52.854Z,1012.39
2018-06-15T10:48:01.769Z,1012.38
2018-06-15T10:49:10.943Z,1012.36
2018-06-15T10:50:19.861Z,1012.38
2018-06-15T10:51:29.291Z,1012.37
2018-06-15T10:52:38.443Z,1012.38
2018-06-15T10:53:47.600Z,1012.39
2018-06-15T10:54:57.531Z,1012.4
2018-06-15T10:56:06.714Z,1012.36
2018-06-15T10:57:16.553Z,1012.35
2018-06-15T10:58:25.994Z,1012.31
2018-06-15T10:59:34.660Z,1012.3
2018-06-15T11:00:44.096Z,1012.27
2018-06-15T11:01:53.011Z,1012.29
2018-06-15T11:03:02.205Z,1012.26
2018-06-15T11:04:11.128Z,1012.25
2018-06-15T11:05:20.562Z,1012.28
2018-06-15T11:06:29.733Z,1012.26
2018-06-15T11:07:39.174Z,1012.27
2018-06-15T11:08:48.600Z,1012.21
2018-06-15T11:09:58.635Z,1012.26
2018-06-15T11:11:07.825Z,1012.21
2018-06-15T11:12:17.039Z,1012.21
2018-06-15T11:13:26.516Z,1012.21
2018-06-15T11:14:35.936Z,1012.13
2018-06-15T11:15:45.362Z,1012.15
2018-06-15T11:16:55.127Z,1012.21
2018-06-15T11:18:04.114Z,1012.15
2018-06-15T11:19:13.300Z,1012.14
2018-06-15T11:20:22.999Z,1012.16
2018-06-15T11:21:32.690Z,1012.17
2018-06-15T11:22:42.124Z,1012.18
2018-06-15T11:23:51.304Z,1012.21
2018-06-15T11:25:00.756Z,1012.17
2018-06-15T11:26:09.684Z,1012.14
2018-06-15T11:27:19.368Z,1012.16
2018-06-15T11:28:28.773Z,1012.17
2018-06-15T11:29:37.933Z,1012.12
2018-06-15T11:30:46.849Z,1012.13
2018-06-15T11:31:56.235Z,1012.13
2018-06-15T11:33:05.151Z,1012.13
2018-06-15T11:34:14.830Z,1012.11
2018-06-15T11:35:24.007Z,1012.1
2018-06-15T11:36:33.178Z,1012.13
2018-06-15T11:37:42.858Z,1012.07
2018-06-15T11:38:52.041Z,1012.03
2018-06-15T11:40:01.485Z,1012.02
2018-06-15T11:41:10.734Z,1012.05
2018-06-15T11:42:21.312Z,1012.02
2018-06-15T11:43:30.473Z,1011.99
2018-06-15T11:44:40.417Z,1011.96
2018-06-15T11:45:49.829Z,1011.95
2018-06-15T11:46:59.256Z,1011.99
2018-06-15T11:48:08.151Z,1011.97
2018-06-15T11:49:17.063Z,1011.96
2018-06-15T11:50:26.206Z,1011.92
2018-06-15T11:51:35.149Z,1011.9
2018-06-15T11:52:44.317Z,1011.9
2018-06-15T11:53:53.485Z,1011.94
2018-06-15T11:55:02.925Z,1011.9
2018-06-15T11:56:12.095Z,1011.9
2018-06-15T11:57:21.271Z,1011.9
2018-06-15T11:58:31.615Z,1011.88
2018-06-15T11:59:40.806Z,1011.88
2018-06-15T12:00:50.250Z,1011.88
2018-06-15T12:01:59.983Z,1011.88
2018-06-15T12:03:09.484Z,1011.84
2018-06-15T12:04:19.166Z,1011.82
2018-06-15T12:05:28.100Z,1011.83
2018-06-15T12:06:37.530Z,1011.8
2018-06-15T12:07:46.956Z,1011.83
2018-06-15T12:08:56.584Z,1011.83
2018-06-15T12:10:05.761Z,1011.79
2018-06-15T12:11:15.206Z,1011.76
2018-06-15T12:12:24.675Z,1011.75
2018-06-15T12:13:33.838Z,1011.76
2018-06-15T12:14:43.257Z,1011.72
2018-06-15T12:15:53.187Z,1011.77
2018-06-15T12:17:02.869Z,1011.75
2018-06-15T12:18:12.067Z,1011.76
2018-06-15T12:19:20.999Z,1011.76
2018-06-15T12:20:30.426Z,1011.72
2018-06-15T12:21:39.880Z,1011.72
2018-06-15T12:22:49.079Z,1011.7
2018-06-15T12:23:58.489Z,1011.69
2018-06-15T12:25:07.418Z,1011.69
2018-06-15T12:26:16.602Z,1011.69
2018-06-15T12:27:26.275Z,1011.72
2018-06-15T12:28:35.730Z,1011.72
2018-06-15T12:29:45.212Z,1011.71
2018-06-15T12:30:54.388Z,1011.66
2018-06-15T12:32:03.305Z,1011.7
2018-06-15T12:33:12.469Z,1011.7
2018-06-15T12:34:21.897Z,1011.7
2018-06-15T12:35:31.325Z,1011.69
2018-06-15T12:36:40.480Z,1011.66
2018-06-15T12:37:49.391Z,1011.67
2018-06-15T12:38:58.869Z,1011.66
2018-06-15T12:40:07.807Z,1011.62
2018-06-15T12:41:17.493Z,1011.59
2018-06-15T12:42:26.938Z,1011.62
2018-06-15T12:43:36.889Z,1011.64
2018-06-15T12:44:46.582Z,1011.63
2018-06-15T12:45:55.866Z,1011.58
2018-06-15T12:47:05.689Z,1011.63
2018-06-15T12:48:15.127Z,1011.61
2018-06-15T12:49:25.238Z,1011.62
2018-06-15T12:50:34.434Z,1011.61
2018-06-15T12:51:44.397Z,1011.63
2018-06-15T12:52:53.828Z,1011.7
2018-06-15T12:54:03.272Z,1011.65
2018-06-15T12:55:12.208Z,1011.67
2018-06-15T12:56:21.660Z,1011.65
2018-06-15T12:57:31.083Z,1011.64
2018-06-15T12:58:40.527Z,1011.65
2018-06-15T12:59:50.276Z,1011.62
2018-06-15T13:00:59.707Z,1011.65
2018-06-15T13:02:09.150Z,1011.65
2018-06-15T13:03:18.819Z,1011.61
2018-06-15T13:04:28.758Z,1011.57
2018-06-15T13:05:37.699Z,1011.65
2018-06-15T13:06:47.389Z,1011.66
2018-06-15T13:07:57.122Z,1011.6
2018-06-15T13:09:07.462Z,1011.58
2018-06-15T13:10:17.417Z,1011.63
2018-06-15T13:11:26.842Z,1011.59
2018-06-15T13:12:35.507Z,1011.61
2018-06-15T13:13:44.925Z,1011.61
2018-06-15T13:14:53.831Z,1011.6
2018-06-15T13:16:03.260Z,1011.6
2018-06-15T13:17:12.456Z,1011.59
2018-06-15T13:18:22.389Z,1011.59
2018-06-15T13:19:31.302Z,1011.59
2018-06-15T13:20:40.217Z,1011.59
2018-06-15T13:21:48.905Z,1011.6
2018-06-15T13:22:58.322Z,1011.59
2018-06-15T13:24:07.497Z,1011.61
2018-06-15T13:25:16.684Z,1011.64
2018-06-15T13:26:25.859Z,1011.63
2018-06-15T13:27:35.024Z,1011.6
2018-06-15T13:28:44.958Z,1011.59
2018-06-15T13:29:54.622Z,1011.57
2018-06-15T13:31:04.027Z,1011.62
2018-06-15T13:32:13.559Z,1011.64
2018-06-15T13:33:23.239Z,1011.64
2018-06-15T13:34:32.978Z,1011.55
2018-06-15T13:35:42.942Z,1011.61
2018-06-15T13:36:52.869Z,1011.57
2018-06-15T13:38:02.316Z,1011.49
2018-06-15T13:39:10.970Z,1011.56
2018-06-15T13:40:20.129Z,1011.5
2018-06-15T13:41:29.566Z,1011.58
2018-06-15T13:42:38.744Z,1011.53
2018-06-15T13:43:48.177Z,1011.57
2018-06-15T13:44:57.879Z,1011.59
2018-06-15T13:46:06.786Z,1011.64
2018-06-15T13:47:15.965Z,1011.59
2018-06-15T13:48:25.392Z,1011.58
2018-06-15T13:49:35.076Z,1011.55
2018-06-15T13:50:44.991Z,1011.51
2018-06-15T13:51:54.425Z,1011.56
2018-06-15T13:53:03.923Z,1011.54
2018-06-15T13:54:13.609Z,1011.52
2018-06-15T13:55:23.031Z,1011.46
2018-06-15T13:56:32.515Z,1011.45
2018-06-15T13:57:41.683Z,1011.47
2018-06-15T13:58:51.598Z,1011.42
2018-06-15T14:00:00.513Z,1011.42
2018-06-15T14:01:09.678Z,1011.37
2018-06-15T14:02:19.122Z,1011.38
2018-06-15T14:03:28.833Z,1011.37